地図

経路データ

SID SEASON NUMBER BASIN SUBBASIN NAME ISO_TIME NATURE LAT LON WMO_WIND WMO_PRES WMO_AGENCY TRACK_TYPE DIST2LAND LANDFALL IFLAG USA_AGENCY USA_ATCF_ID USA_LAT USA_LON USA_RECORD USA_STATUS USA_WIND USA_PRES USA_SSHS USA_R34_NE USA_R34_SE USA_R34_SW USA_R34_NW USA_R50_NE USA_R50_SE USA_R50_SW USA_R50_NW USA_R64_NE USA_R64_SE USA_R64_SW USA_R64_NW USA_POCI USA_ROCI USA_RMW USA_EYE TOKYO_LAT TOKYO_LON TOKYO_GRADE TOKYO_WIND TOKYO_PRES TOKYO_R50_DIR TOKYO_R50_LONG TOKYO_R50_SHORT TOKYO_R30_DIR TOKYO_R30_LONG TOKYO_R30_SHORT TOKYO_LAND CMA_LAT CMA_LON CMA_CAT CMA_WIND CMA_PRES HKO_LAT HKO_LON HKO_CAT HKO_WIND HKO_PRES NEWDELHI_LAT NEWDELHI_LON NEWDELHI_GRADE NEWDELHI_WIND NEWDELHI_PRES NEWDELHI_CI NEWDELHI_DP NEWDELHI_POCI REUNION_LAT REUNION_LON REUNION_TYPE REUNION_WIND REUNION_PRES REUNION_TNUM REUNION_CI REUNION_RMW REUNION_R34_NE REUNION_R34_SE REUNION_R34_SW REUNION_R34_NW REUNION_R50_NE REUNION_R50_SE REUNION_R50_SW REUNION_R50_NW REUNION_R64_NE REUNION_R64_SE REUNION_R64_SW REUNION_R64_NW BOM_LAT BOM_LON BOM_TYPE BOM_WIND BOM_PRES BOM_TNUM BOM_CI BOM_RMW BOM_R34_NE BOM_R34_SE BOM_R34_SW BOM_R34_NW BOM_R50_NE BOM_R50_SE BOM_R50_SW BOM_R50_NW BOM_R64_NE BOM_R64_SE BOM_R64_SW BOM_R64_NW BOM_ROCI BOM_POCI BOM_EYE BOM_POS_METHOD BOM_PRES_METHOD NADI_LAT NADI_LON NADI_CAT NADI_WIND NADI_PRES WELLINGTON_LAT WELLINGTON_LON WELLINGTON_WIND WELLINGTON_PRES DS824_LAT DS824_LON DS824_STAGE DS824_WIND DS824_PRES TD9636_LAT TD9636_LON TD9636_STAGE TD9636_WIND TD9636_PRES TD9635_LAT TD9635_LON TD9635_WIND TD9635_PRES TD9635_ROCI NEUMANN_LAT NEUMANN_LON NEUMANN_CLASS NEUMANN_WIND NEUMANN_PRES MLC_LAT MLC_LON MLC_CLASS MLC_WIND MLC_PRES USA_GUST BOM_GUST BOM_GUST_PER REUNION_GUST REUNION_GUST_PER USA_SEAHGT USA_SEARAD_NE USA_SEARAD_SE USA_SEARAD_SW USA_SEARAD_NW STORM_SPEED STORM_DIR
1968268N26287 1968 97 NA NA FRANCES 1968-09-23 12:00:00 SS 26.4000 -73.5000 25 hurdat_atl main 470 470 O_____________ hurdat_atl AL121968 26.4000 -73.5000 SD 25 -2 8 347
1968268N26287 1968 97 NA NA FRANCES 1968-09-23 15:00:00 SS 26.8050 -73.5999 main 478 478 P_____________ AL121968 26.8050 -73.5999 SD 25 -2 8 347
1968268N26287 1968 97 NA NA FRANCES 1968-09-23 18:00:00 SS 27.2000 -73.7000 25 hurdat_atl main 488 488 O_____________ hurdat_atl AL121968 27.2000 -73.7000 SD 25 -2 8 347
1968268N26287 1968 97 NA NA FRANCES 1968-09-23 21:00:00 SS 27.5725 -73.8000 main 502 502 P_____________ AL121968 27.5725 -73.8000 SD 25 -2 7 346
1968268N26287 1968 97 NA NA FRANCES 1968-09-24 00:00:00 SS 27.9000 -73.9000 25 hurdat_atl main 513 512 O_____________ hurdat_atl AL121968 27.9000 -73.9000 SD 25 -2 6 343
1968268N26287 1968 97 NA NA FRANCES 1968-09-24 03:00:00 SS 28.1725 -74.0075 main 526 526 P_____________ AL121968 28.1725 -74.0075 SD 25 -2 5 340
1968268N26287 1968 97 NA NA FRANCES 1968-09-24 06:00:00 SS 28.4000 -74.1000 25 hurdat_atl main 534 534 O_____________ hurdat_atl AL121968 28.4000 -74.1000 SD 25 -2 4 341
1968268N26287 1968 97 NA NA FRANCES 1968-09-24 09:00:00 SS 28.5925 -74.1725 main 542 542 P_____________ AL121968 28.5925 -74.1725 SD 27 -2 4 348
1968268N26287 1968 97 NA NA FRANCES 1968-09-24 12:00:00 SS 28.8000 -74.2000 30 hurdat_atl main 558 558 O_____________ hurdat_atl AL121968 28.8000 -74.2000 SD 30 -2 5 0
1968268N26287 1968 97 NA NA FRANCES 1968-09-24 15:00:00 SS 29.0774 -74.2022 main 583 583 P_____________ AL121968 29.0774 -74.2022 SD 30 -2 6 8
1968268N26287 1968 97 NA NA FRANCES 1968-09-24 18:00:00 SS 29.4000 -74.1000 30 1012 hurdat_atl main 615 607 O_____________ hurdat_atl AL121968 29.4000 -74.1000 SD 30 1012 -2 7 24
1968268N26287 1968 97 NA NA FRANCES 1968-09-24 21:00:00 SS 29.7499 -73.8601 main 607 584 P_____________ AL121968 29.7499 -73.8601 SD 30 -2 9 37
1968268N26287 1968 97 NA NA FRANCES 1968-09-25 00:00:00 SS 30.1000 -73.5000 30 hurdat_atl main 584 574 O_____________ hurdat_atl AL121968 30.1000 -73.5000 SD 30 -2 9 46
1968268N26287 1968 97 NA NA FRANCES 1968-09-25 03:00:00 SS 30.4075 -73.0723 main 575 569 P_____________ AL121968 30.4075 -73.0723 SD 30 -2 10 52
1968268N26287 1968 97 NA NA FRANCES 1968-09-25 06:00:00 SS 30.7000 -72.6000 30 hurdat_atl main 575 573 O_____________ hurdat_atl AL121968 30.7000 -72.6000 SD 30 -2 10 53
1968268N26287 1968 97 NA NA FRANCES 1968-09-25 09:00:00 SS 30.9998 -72.1497 main 581 578 P_____________ AL121968 30.9998 -72.1497 SD 30 -2 10 52
1968268N26287 1968 97 NA NA FRANCES 1968-09-25 12:00:00 SS 31.3000 -71.7000 30 1012 hurdat_atl main 585 585 O_____________ hurdat_atl AL121968 31.3000 -71.7000 SD 30 1012 -2 10 52
1968268N26287 1968 97 NA NA FRANCES 1968-09-25 15:00:00 SS 31.5999 -71.2423 main 599 599 P_____________ AL121968 31.5999 -71.2423 SD 30 -2 10 52
1968268N26287 1968 97 NA NA FRANCES 1968-09-25 18:00:00 SS 31.9000 -70.8000 30 hurdat_atl main 609 609 O_____________ hurdat_atl AL121968 31.9000 -70.8000 SD 30 -2 10 50
1968268N26287 1968 97 NA NA FRANCES 1968-09-25 21:00:00 SS 32.2074 -70.3774 main 617 616 P_____________ AL121968 32.2074 -70.3774 SD 30 -2 9 48
1968268N26287 1968 97 NA NA FRANCES 1968-09-26 00:00:00 SS 32.5000 -70.0000 30 hurdat_atl main 624 624 O_____________ hurdat_atl AL121968 32.5000 -70.0000 SD 30 -2 8 46
1968268N26287 1968 97 NA NA FRANCES 1968-09-26 03:00:00 SS 32.7648 -69.6847 main 627 627 P_____________ AL121968 32.7648 -69.6847 SD 30 -2 7 45
1968268N26287 1968 97 NA NA FRANCES 1968-09-26 06:00:00 SS 33.0000 -69.4000 30 hurdat_atl main 639 639 O_____________ hurdat_atl AL121968 33.0000 -69.4000 SD 30 -2 7 47
1968268N26287 1968 97 NA NA FRANCES 1968-09-26 09:00:00 SS 33.2149 -69.0999 main 652 652 P_____________ AL121968 33.2149 -69.0999 SD 32 -2 6 51
1968268N26287 1968 97 NA NA FRANCES 1968-09-26 12:00:00 TS 33.4000 -68.8000 35 hurdat_atl main 667 667 O_____________ hurdat_atl AL121968 33.4000 -68.8000 TS 35 0 6 55
1968268N26287 1968 97 NA NA FRANCES 1968-09-26 15:00:00 TS 33.5650 -68.4924 main 683 683 P_____________ AL121968 33.5650 -68.4924 TS 37 0 6 59
1968268N26287 1968 97 NA NA FRANCES 1968-09-26 18:00:00 TS 33.7000 -68.2000 40 1003 hurdat_atl main 705 705 O_____________ hurdat_atl AL121968 33.7000 -68.2000 TS 40 1003 0 5 62
1968268N26287 1968 97 NA NA FRANCES 1968-09-26 21:00:00 TS 33.8074 -67.9498 main 727 727 P_____________ AL121968 33.8074 -67.9498 TS 40 0 5 64
1968268N26287 1968 97 NA NA FRANCES 1968-09-27 00:00:00 TS 33.9000 -67.7000 40 hurdat_atl main 740 740 O_____________ hurdat_atl AL121968 33.9000 -67.7000 TS 40 0 5 66
1968268N26287 1968 97 NA NA FRANCES 1968-09-27 03:00:00 TS 33.9998 -67.4299 main 763 763 P_____________ AL121968 33.9998 -67.4299 TS 42 0 5 68
1968268N26287 1968 97 NA NA FRANCES 1968-09-27 06:00:00 TS 34.1000 -67.1000 45 hurdat_atl main 786 786 O_____________ hurdat_atl AL121968 34.1000 -67.1000 TS 45 0 7 72
1968268N26287 1968 97 NA NA FRANCES 1968-09-27 09:00:00 TS 34.2001 -66.6725 main 819 819 P_____________ AL121968 34.2001 -66.6725 TS 47 0 8 75
1968268N26287 1968 97 NA NA FRANCES 1968-09-27 12:00:00 TS 34.3000 -66.2000 50 hurdat_atl main 860 860 O_____________ hurdat_atl AL121968 34.3000 -66.2000 TS 50 0 7 75
1968268N26287 1968 97 NA NA FRANCES 1968-09-27 15:00:00 TS 34.3991 -65.8022 main 891 891 P_____________ AL121968 34.3991 -65.8022 TS 50 0 8 75
1968268N26287 1968 97 NA NA FRANCES 1968-09-27 18:00:00 TS 34.5000 -65.3000 50 1001 hurdat_atl main 900 900 O_____________ hurdat_atl AL121968 34.5000 -65.3000 TS 50 1001 0 10 79
1968268N26287 1968 97 NA NA FRANCES 1968-09-27 21:00:00 TS 34.6000 -64.5674 main 919 919 P_____________ AL121968 34.6000 -64.5674 TS 50 0 13 81
1968268N26287 1968 97 NA NA FRANCES 1968-09-28 00:00:00 TS 34.7000 -63.7000 50 hurdat_atl main 952 952 O_____________ hurdat_atl AL121968 34.7000 -63.7000 TS 50 0 14 82
1968268N26287 1968 97 NA NA FRANCES 1968-09-28 03:00:00 TS 34.7991 -62.8372 main 990 990 P_____________ AL121968 34.7991 -62.8372 TS 47 0 15 82
1968268N26287 1968 97 NA NA FRANCES 1968-09-28 06:00:00 TS 34.9000 -61.9000 45 hurdat_atl main 1000 1000 O_____________ hurdat_atl AL121968 34.9000 -61.9000 TS 45 0 16 83
1968268N26287 1968 97 NA NA FRANCES 1968-09-28 09:00:00 TS 34.9923 -60.8646 main 1018 1018 P_____________ AL121968 34.9923 -60.8646 TS 45 0 17 83
1968268N26287 1968 97 NA NA FRANCES 1968-09-28 12:00:00 TS 35.1000 -59.8000 45 hurdat_atl main 1046 1046 O_____________ hurdat_atl AL121968 35.1000 -59.8000 TS 45 0 17 82
1968268N26287 1968 97 NA NA FRANCES 1968-09-28 15:00:00 TS 35.2413 -58.7998 main 1078 1072 P_____________ AL121968 35.2413 -58.7998 TS 45 0 17 80
1968268N26287 1968 97 NA NA FRANCES 1968-09-28 18:00:00 TS 35.4000 -57.8000 45 1003 hurdat_atl main 1105 1105 O_____________ hurdat_atl AL121968 35.4000 -57.8000 TS 45 1003 0 17 79
1968268N26287 1968 97 NA NA FRANCES 1968-09-28 21:00:00 TS 35.5491 -56.7646 main 1138 1130 P_____________ AL121968 35.5491 -56.7646 TS 42 1003 0 17 80
1968268N26287 1968 97 NA NA FRANCES 1968-09-29 00:00:00 TS 35.7000 -55.7000 40 hurdat_atl main 1150 1150 I_____________ hurdat_atl AL121968 35.7000 -55.7000 TS 40 1003 0 17 79
1968268N26287 1968 97 NA NA FRANCES 1968-09-29 03:00:00 TS 35.8853 -54.6536 main 1165 1165 P_____________ AL121968 35.8853 -54.6536 TS 40 1003 0 18 80
1968268N26287 1968 97 NA NA FRANCES 1968-09-29 06:00:00 TS 36.0000 -53.5000 40 1004 hurdat_atl main 1179 1179 O_____________ hurdat_atl AL121968 36.0000 -53.5000 TS 40 1004 0 20 88
1968268N26287 1968 97 NA NA FRANCES 1968-09-29 09:00:00 TS 35.9453 -52.1288 main 1193 1193 P_____________ AL121968 35.9453 -52.1288 TS 37 0 23 95
1968268N26287 1968 97 NA NA FRANCES 1968-09-29 12:00:00 ET 35.8000 -50.7000 35 hurdat_atl main 1219 1219 O_____________ hurdat_atl AL121968 35.8000 -50.7000 EX 35 -4 23 98
1968268N26287 1968 97 NA NA FRANCES 1968-09-29 15:00:00 ET 35.6491 -49.3650 main 1263 1263 P_____________ AL121968 35.6491 -49.3650 EX 35 -4 21 98
1968268N26287 1968 97 NA NA FRANCES 1968-09-29 18:00:00 ET 35.5000 -48.1000 35 hurdat_atl main 1305 O_____________ hurdat_atl AL121968 35.5000 -48.1000 EX 35 -4 21 98

IBTrACS Databaseについて

本データベースは、米国NOAAが公開する1842年以降の世界の熱帯低気圧のベストトラックデータアーカイブInternational Best Track Archive for Climate Stewardship (IBTrACS)を、ウェブで閲覧しやすい形式に変換したものです。

最終更新日:2022-05-26